Benvolgut visitant, si us plau, ingressa Recuperar contrasenya
AVAMET paisatges
Union Alcoyana

València l'Albufera/Tancat de la Pipa

Dades diàries. Acumulats / Últims 30 dies disponibles

Data Temperatura (°C) Humitat rel. (%) Pressió rel. (hPa) Vent (km/h) Precipitació
Mínima Mitjana Màxima Amplitud
tèrmica
Mínima Mitjana Màxima Mínima Mitjana Màxima Predom. Mitjana Ràfega
màxima
Total
(mm)
Índex-n
Mínima Mitjana Màxima Mínima Mitjana Màxima n
0 a 1
P0 max
mm 5'
Dades mensuals acumulades fins l'últim dia disponible
06/2022 18,0 21,3 23,8 24,6 23,4 27,6 32,9 14,9 26 77 94 1.007 1.014 1.021   10,1 46,7 5,6
Dades anuals acumulades fins l'últim dia disponible
2022 3,5 12,6 23,8 15,9 11,3 19,3 32,9 29,4 24 78 97 998 1.019 1.035   12,1 95,0 430,2
Últims 30 dies disponibles
26-06-2022 21,6     23,6     25,5 3,9 75 85 90 1.007 1.009 1.010 SE 10,4 27,4 0,0
25-06-2022 20,5     24,1     26,9 6,4 66 79 88 1.007 1.010 1.011 NE 9,8 30,6 0,0
24-06-2022 22,6     26,2     31,7 9,1 31 53 72 1.009 1.011 1.014 W 13,5 46,7 0,0
23-06-2022 22,7     26,4     30,3 7,6 39 55 87 1.008 1.010 1.012 SE 13,7 37,0 0,0
22-06-2022 21,3     25,5     30,4 9,1 28 66 91 1.007 1.009 1.010 W 12,9 43,5 0,0
21-06-2022 23,3     25,8     27,9 4,6 75 84 91 1.007 1.009 1.010 ESE 8,5 40,2 5,4
20-06-2022 23,8     26,1     28,0 4,2 76 85 92 1.008 1.009 1.010 ESE 10,0 29,0 0,0
19-06-2022 23,4     26,0     27,4 4,0 67 83 91 1.007 1.010 1.012 ENE 10,6 29,0 0,0
18-06-2022 21,8     26,4     30,9 9,1 41 70 89 1.011 1.015 1.018 E 9,2 29,0 0,0
17-06-2022 22,5     27,4     32,9 10,4 42 65 81 1.016 1.018 1.019 SE 8,5 33,8 0,0
16-06-2022 23,5     26,6     29,3 5,8 58 78 93 1.016 1.017 1.018 ESE 8,4 27,4 0,0
15-06-2022 22,4     26,3     29,2 6,8 63 78 88 1.014 1.015 1.017 SE 9,5 45,1 0,0
14-06-2022 21,3     24,8     26,8 5,5 68 83 90 1.014 1.015 1.017 E 10,0 41,8 0,2
13-06-2022 20,8     24,1     26,9 6,1 46 74 87 1.015 1.017 1.019 ENE 8,4 29,0 0,0
12-06-2022 20,0     24,4     27,2 7,2 50 69 80 1.018 1.019 1.021 ESE 9,3 29,0 0,0
11-06-2022 20,5     24,2     27,6 7,1 57 78 89 1.018 1.019 1.021 NW 9,8 30,6 0,0
10-06-2022 20,6     23,8     26,8 6,2 72 84 94 1.017 1.018 1.019 SE 9,7 30,6 0,0
09-06-2022 22,4     24,8     26,7 4,3 65 80 90 1.014 1.016 1.018 SE 12,2 43,5 0,0
08-06-2022 21,5     24,1     27,5 6,0 66 83 92 1.011 1.012 1.015 ESE 8,9 33,8 0,0
07-06-2022 19,8     23,0     24,7 4,9 75 86 90 1.014 1.016 1.018 ENE 9,0 33,8 0,0
06-06-2022 18,4     22,6     24,9 6,5 69 82 88 1.015 1.017 1.019 E 9,7 29,0 0,0
05-06-2022 20,7     25,0     32,7 12,0 26 65 91 1.014 1.016 1.018 W 10,8 46,7 0,0
04-06-2022 19,0     22,3     24,1 5,1 80 86 94 1.011 1.013 1.014 E 9,2 33,8 0,0
03-06-2022 21,4     23,1     25,3 3,9 70 86 93 1.011 1.012 1.013 ESE 10,6 38,6 0,0
02-06-2022 19,1     21,6     23,4 4,3 82 90 94 1.011 1.012 1.013 E 8,7 29,0 0,0
01-06-2022 18,0     21,4     23,6 5,6 78 88 94 1.012 1.014 1.015 NW 10,1 33,8 0,0
31-05-2022 17,9     21,1     23,2 5,3 79 88 93 1.011 1.012 1.014 ESE 8,4 30,6 0,0
30-05-2022 17,2     21,8     29,2 12,0 42 80 93 1.004 1.006 1.011 W 13,5 45,1 0,0
29-05-2022 19,1     22,1     24,1 5,0 47 79 89 1.004 1.006 1.008 ENE 11,9 35,4 0,0
28-05-2022 17,6     22,9     28,0 10,4 45 70 87 1.008 1.013 1.018 SE 10,5 33,8 0,0
Últims 13 mesos disponibles
05/2022 12,6 15,8 20,1 19,6 16,4 22,8 30,3 17,7 67 80 93 1.006 1.016 1.023 SE 10,3 61,2 89,6
04/2022 4,1 11,8 14,9 15,2 11,6 18,7 25,3 21,2 49 73 94 1.002 1.014 1.023 ENE 14,0 95,0 108,2
03/2022 7,3 11,0 14,5 13,2 11,5 15,6 22,9 15,6 64 85 96 1.002 1.018 1.025 NE 18,6 75,6 213,2
02/2022 6,8 9,5 11,7 13,0 14,0 16,9 23,5 16,7 49 76 89 1.016 1.024 1.032 NW 9,2 53,1 2,0
01/2022 3,5 7,1 13,6 10,7 11,3 15,2 23,0 19,5 52 75 92 1.013 1.027 1.033 WSW 9,6 85,3 11,6
12/2021 7,7 11,0 16,6 14,0 13,7 17,5 21,9 14,2 54 74 90 1.008 1.020 1.029 W 15,2 80,5 2,0
11/2021 7,1 11,2 18,6 14,2 12,8 17,8 26,8 19,7 54 71 90 1.005 1.015 1.028 W 11,5 67,6 78,2
10/2021 12,8 16,1 19,8 19,7 20,1 23,3 29,7 16,9 61 82 89 1.008 1.018 1.025 W 8,8 67,6 65,4
09/2021 15,9 20,1 23,0 23,7 22,4 27,0 30,3 14,4 70 83 91 1.012 1.016 1.023 NW 10,2 64,4 72,6
08/2021 18,4 22,5 24,6 25,6 26,1 28,3 36,1 17,7 62 82 88 1.005 1.014 1.019 SE 10,1 62,8 11,8
07/2021 18,1 21,8 24,7 25,1 24,4 28,1 37,2 19,1 56 81 90 1.007 1.013 1.020 ESE 10,5 67,6 20,6
06/2021 17,8 20,0 22,8 22,9 21,6 25,4 30,2 12,4 61 79 90 1.009 1.016 1.021 E 9,5 46,7 33,4
05/2021 12,7 15,9 22,1 19,1 16,6 22,8 33,6 20,9 45 76 91 1.009 1.016 1.023 SE 12,8 59,5 26,4
Tots els anys disponibles
2021 1,3 14,9 24,7 18,1 7,2 21,3 37,2 35,9 0 77 93 0 1.003 1.034 W 11,8 101,4 455,0
2020 3,0 14,9 25,5 18,3 9,2 21,8 33,4 30,4 43 77 94 997 1.017 1.033 N 11,4 103,0 396,2
2019 2,1 14,6 25,9 18,1 11,2 21,8 39,3 37,2 42 74 95 994 1.016 1.034 ESE 10,2 107,8 268,2
2018 3,1 14,9 25,2 18,2 9,0 21,6 34,3 31,2 WSW 11,4 83,7 805,6
2017 2,1 14,7 25,6 18,2 9,4 21,6 35,0 32,9 ESE 10,9 93,3 307,0
2016 3,7 15,2 25,4 18,4 11,3 21,6 34,2 30,5 ESE 11,9 91,7 453,4
Temperatura (°C)
Humitat relativa (%)
Velocitat del vent i ràfega màxima (km/h)
Direcció del vent (°)
Pressió (hPa)
Precipitació (mm)
Nota sobre les dades: s'avisa a l'usuari de la provisionalitat i no oficialitat d'aquestes dades
Logo AVAMET blanc
Web allotjada a Sollutia
Llicència de Creative CommonsLa web d'AVAMET i els seus continguts estan subjectes a una llicència de
Reconeixement - No Comercial - Compartir igual
Avís legal - Política de privacitat - Política de cookies
NOVES ESTACIONS: Simat de la Valldigna (Ajuntament/Soci), Ares del Maestrat - Pla de la Pinella (Ajuntament/Soci), Benifaió - CEIP Santa Bàrbara (Soci), el Real de Gandia - CEIP CAES Nuestra Señora del Amparo (Soci), Alginet - sud (Soci), Siete Aguas (Ajuntament/Soci), Xixona - Castell (Ajuntament/Soci), el Puig de Santa Maria - la Lloma (Soci), Sagunt - Racó de Gausa (Soci), Nàquera - Germanells (Soci), Xodos - Lloma Bernat (Soci), l'Alqueria d'Asnar (Ajuntament/Soci), les Alqueries - Cap del Terme (Soci), Vila-real - les Solaes (Soci), Calles - Parque de Emergencias (Soci), Bocairent - els Corrals (Soci), Sella - el Xarquer, Xàbia - Far del Cap de la Nau (Soci), Benicàssim - Quadre de Santiago (Soci), Sant Mateu - IES Maestrat (Soci) - - -